KEND

Vance AFB Airport

Enid, Oklahoma, USA
METAR KEND 220037Z AUTO 05007KT 4SM BR OVC006 M03/M03 A3037 RMK AO2 FZDZE2356SNB2356E11FZRAB11E33SNB33E36 CIG 004V007 SLP305 $
Observed Flight Rules
Feb-22 @ 00:37 UTC (4 hours ago) Instrument Flight Rules
Wind Visibility Clouds Conditions
50° at 7 knots 4 miles
  • Overcast at 600' AGL
  • Mist
Temperatures Readings
Current -3°C / 27°F
Dewpoint -3°C / 27°F
Humidity 100%
Altimeter 30.37" Hg
Pressure 1030.5 hPa
Elevation 398
METAR KEND 220037Z AUTO 05007KT 4SM BR OVC006 M03/M03 A3037 RMK AO2 FZDZE2356SNB2356E11FZRAB11E33SNB33E36 CIG 004V007 SLP305 $
Observed Flight Rules
Feb-22 @ 00:37 UTC
(4 hours ago)
IFR
Wind Visibility
50° at 7 knots 4 miles
Clouds
  • Overcast at 600' AGL
Conditions
  • Mist
Temperature Dewpoint
-3°C / 27°F -3°C / 27°F
Humidity Altimeter Pressure
100% 30.37" Hg 1030.5 hPa